Time;durP1;ratioP1;P1;durP2;ratioP2;P2;SDS_P1;SDS_P2;PMS_P1;PMS_P2;Temp;Humidity;BMP_temperature;BMP_pressure;BME280_temperature;BME280_humidity;BME280_pressure;Samples;Min_cycle;Max_cycle;Signal;HPM_P1;HPM_P2
2023/07/20 00:00:22;;;;;;;;;;;;;;;25.54;40.90;98684.50;5091507;28;19923;-46
2023/07/20 00:02:51;;;;;;;;;;;;;;;25.56;40.87;98682.31;5091219;28;19969;-46
2023/07/20 00:05:18;;;;;;;;;;;;;;;25.70;40.79;98681.19;5092371;28;19916;-46
2023/07/20 00:07:43;;;;;;;;;;;;;;;25.88;40.64;98674.13;5091156;28;19912;-46
2023/07/20 00:10:09;;;;;;;;;;;;;;;25.73;40.75;98681.69;5092394;28;19919;-46
2023/07/20 00:12:34;;;;;;;;;;;;;;;25.89;40.97;98680.28;5092417;28;20389;-46
2023/07/20 00:15:00;;;;;;;;;;;;;;;25.95;40.68;98673.72;5074367;28;20006;-46
2023/07/20 00:17:25;;;;;;;;;;;;;;;26.00;40.71;98673.63;5092539;28;19916;-46
2023/07/20 00:19:51;;;;;;;;;;;;;;;26.18;40.57;98679.13;5091049;28;20290;-46
2023/07/20 00:22:16;;;;;;;;;;;;;;;26.35;40.27;98675.81;5090991;28;20301;-46
2023/07/20 00:24:41;;;;;;;;;;;;;;;26.17;40.04;98674.88;5090932;28;20294;-46
2023/07/20 00:27:07;;;;;;;;;;;;;;;25.98;40.22;98683.88;5090937;28;20396;-46
2023/07/20 00:29:32;;;;;;;;;;;;;;;25.91;40.43;98675.44;5092219;28;19911;-46
2023/07/20 00:31:58;;;;;;;;;;;;;;;25.70;40.51;98680.41;5092208;28;19919;-45
2023/07/20 00:34:24;;;;;;;;;;;;;;;25.49;40.80;98678.16;5092056;28;19916;-46
2023/07/20 00:36:50;;;;;;;;;;;;;;;25.17;41.15;98688.91;5091814;28;19924;-46
2023/07/20 00:39:15;;;;;;;;;;;;;;;24.99;41.52;98683.34;5092460;28;19916;-46
2023/07/20 00:41:40;;;;;;;;;;;;;;;24.94;41.99;98682.63;5092076;28;19915;-46
2023/07/20 00:44:06;;;;;;;;;;;;;;;25.01;42.01;98683.00;5092080;28;19920;-46
2023/07/20 00:46:32;;;;;;;;;;;;;;;25.12;41.79;98679.06;5092034;28;19908;-46
2023/07/20 00:48:58;;;;;;;;;;;;;;;25.24;41.73;98676.72;5092018;28;19918;-46
2023/07/20 00:51:25;;;;;;;;;;;;;;;25.08;41.34;98678.06;5091997;28;19989;-46
2023/07/20 00:53:50;;;;;;;;;;;;;;;24.82;41.62;98680.41;5092055;28;19912;-46
2023/07/20 00:56:16;;;;;;;;;;;;;;;24.70;41.95;98672.81;5093497;28;19970;-46
2023/07/20 00:58:42;;;;;;;;;;;;;;;24.85;42.03;98679.78;5095970;28;19923;-46
2023/07/20 01:01:07;;;;;;;;;;;;;;;25.07;42.12;98669.22;5095916;28;19920;-46
2023/07/20 01:03:33;;;;;;;;;;;;;;;25.20;41.95;98664.94;5094492;28;20384;-46
2023/07/20 01:06:18;;;;;;;;;;;;;;;25.36;41.60;98662.00;5095775;28;20290;-46
2023/07/20 01:08:53;;;;;;;;;;;;;;;25.36;41.42;98662.81;5088062;28;20377;-46
2023/07/20 01:11:34;;;;;;;;;;;;;;;25.25;41.57;98656.03;5095687;28;19916;-46
2023/07/20 01:13:59;;;;;;;;;;;;;;;25.30;41.84;98669.38;5095631;28;19912;-46
2023/07/20 01:16:25;;;;;;;;;;;;;;;25.46;41.82;98665.28;5095628;28;19919;-46
2023/07/20 01:18:50;;;;;;;;;;;;;;;25.61;41.65;98658.81;5094323;28;19912;-46
2023/07/20 01:21:24;;;;;;;;;;;;;;;25.64;41.21;98663.59;5095497;28;19920;-46
2023/07/20 01:23:50;;;;;;;;;;;;;;;25.47;41.45;98669.59;5095551;28;19916;-46
2023/07/20 01:26:48;;;;;;;;;;;;;;;25.39;41.46;98661.41;5095494;28;19916;-46
2023/07/20 01:29:40;;;;;;;;;;;;;;;25.62;41.77;98660.41;5071667;28;20393;-46
2023/07/20 01:32:07;;;;;;;;;;;;;;;25.79;41.21;98654.41;5095377;28;20413;-46
2023/07/20 01:34:35;;;;;;;;;;;;;;;25.93;41.32;98659.78;5095153;28;20498;-46
2023/07/20 01:37:01;;;;;;;;;;;;;;;25.99;41.06;98650.50;5094952;28;19969;-46
2023/07/20 01:39:26;;;;;;;;;;;;;;;26.01;40.88;98648.31;5095165;28;20297;-46
2023/07/20 01:41:52;;;;;;;;;;;;;;;26.00;40.81;98649.41;5093785;28;20002;-46
2023/07/20 01:44:18;;;;;;;;;;;;;;;25.98;40.83;98640.88;5093789;28;19912;-46
2023/07/20 01:46:43;;;;;;;;;;;;;;;25.99;40.60;98644.34;5093651;28;19916;-46
2023/07/20 01:49:09;;;;;;;;;;;;;;;26.05;40.98;98638.53;5094999;28;19951;-46
2023/07/20 01:51:34;;;;;;;;;;;;;;;26.05;40.77;98630.47;5094943;28;19912;-46
2023/07/20 01:54:00;;;;;;;;;;;;;;;26.00;40.53;98633.28;5093516;28;20369;-46
2023/07/20 01:56:25;;;;;;;;;;;;;;;25.89;40.65;98640.72;5093553;28;20119;-46
2023/07/20 01:58:50;;;;;;;;;;;;;;;25.86;40.79;98643.25;5094799;28;20431;-46
2023/07/20 02:01:16;;;;;;;;;;;;;;;25.80;41.11;98633.72;5093389;28;19922;-46
2023/07/20 02:03:41;;;;;;;;;;;;;;;25.74;41.54;98642.97;5093357;28;19912;-45
2023/07/20 02:06:07;;;;;;;;;;;;;;;25.69;40.98;98635.81;5094623;28;19966;-46
2023/07/20 02:08:32;;;;;;;;;;;;;;;25.51;41.16;98638.34;5094606;28;19915;-46
2023/07/20 02:10:57;;;;;;;;;;;;;;;25.35;41.65;98631.66;5094564;28;20389;-46
2023/07/20 02:13:23;;;;;;;;;;;;;;;25.29;41.75;98644.41;5094491;28;20374;-46
2023/07/20 02:15:49;;;;;;;;;;;;;;;25.27;41.94;98645.78;5094667;28;20270;-46
2023/07/20 02:18:14;;;;;;;;;;;;;;;25.29;41.71;98649.78;5093081;28;20404;-46
2023/07/20 02:20:40;;;;;;;;;;;;;;;25.22;41.82;98646.69;5094610;28;19912;-46
2023/07/20 02:23:06;;;;;;;;;;;;;;;25.02;41.80;98649.72;5093020;28;20435;-46
2023/07/20 02:25:31;;;;;;;;;;;;;;;24.75;42.21;98650.44;5094241;28;19935;-46
2023/07/20 02:27:57;;;;;;;;;;;;;;;24.56;42.54;98650.50;5092897;28;19974;-45
2023/07/20 02:30:22;;;;;;;;;;;;;;;24.41;42.79;98652.31;5094176;28;19912;-46
2023/07/20 02:32:48;;;;;;;;;;;;;;;24.26;43.11;98647.16;5094122;28;19916;-45
2023/07/20 02:35:14;;;;;;;;;;;;;;;24.13;43.32;98648.72;5094242;28;19919;-46
2023/07/20 02:37:40;;;;;;;;;;;;;;;23.98;43.47;98651.59;5092495;28;19920;-46
2023/07/20 02:40:07;;;;;;;;;;;;;;;23.88;43.42;98647.94;5093936;28;19916;-45
2023/07/20 02:42:32;;;;;;;;;;;;;;;23.78;43.65;98647.31;5093937;28;19929;-46
2023/07/20 02:44:58;;;;;;;;;;;;;;;23.72;44.35;98649.22;5093857;28;19942;-45
2023/07/20 02:47:23;;;;;;;;;;;;;;;23.76;44.22;98649.44;5092504;28;19957;-46
2023/07/20 02:49:49;;;;;;;;;;;;;;;23.78;44.15;98645.41;5093812;28;19912;-46
2023/07/20 02:52:14;;;;;;;;;;;;;;;23.77;44.21;98646.50;5093685;28;19912;-46
2023/07/20 02:54:40;;;;;;;;;;;;;;;23.72;44.27;98646.53;5092316;28;20414;-46
2023/07/20 02:57:05;;;;;;;;;;;;;;;23.64;44.97;98639.13;5093697;28;20342;-46
2023/07/20 02:59:31;;;;;;;;;;;;;;;23.65;44.81;98644.22;5092335;28;20382;-45
2023/07/20 03:01:57;;;;;;;;;;;;;;;23.71;44.65;98648.44;5092220;28;20011;-45
2023/07/20 03:04:23;;;;;;;;;;;;;;;23.69;44.61;98639.09;5093771;28;19916;-46
2023/07/20 03:06:49;;;;;;;;;;;;;;;23.54;44.89;98642.72;5093468;28;19912;-45
2023/07/20 03:09:15;;;;;;;;;;;;;;;23.42;45.22;98653.88;5092096;28;19918;-46
2023/07/20 03:11:41;;;;;;;;;;;;;;;23.33;45.19;98639.50;5092069;28;19915;-45
2023/07/20 03:14:06;;;;;;;;;;;;;;;23.27;45.59;98646.00;5091910;28;19912;-46
2023/07/20 03:16:32;;;;;;;;;;;;;;;23.15;45.60;98641.03;5091966;28;19951;-46
2023/07/20 03:18:59;;;;;;;;;;;;;;;23.07;45.86;98650.50;5092662;28;19955;-46
2023/07/20 03:21:24;;;;;;;;;;;;;;;22.98;46.27;98635.28;5091866;28;19912;-46
2023/07/20 03:23:50;;;;;;;;;;;;;;;22.94;46.22;98643.09;5093102;28;19999;-46
2023/07/20 03:26:15;;;;;;;;;;;;;;;22.93;46.59;98649.53;5093066;28;20051;-46
2023/07/20 03:28:41;;;;;;;;;;;;;;;22.86;46.31;98636.50;5093059;28;19959;-46
2023/07/20 03:31:06;;;;;;;;;;;;;;;22.80;46.50;98644.81;5093013;28;19920;-46
2023/07/20 03:33:32;;;;;;;;;;;;;;;22.84;46.75;98648.53;5093000;28;20001;-46
2023/07/20 03:35:58;;;;;;;;;;;;;;;22.92;46.58;98654.09;5093118;28;19912;-46
2023/07/20 03:38:24;;;;;;;;;;;;;;;23.01;46.73;98642.78;5092699;28;19998;-46
2023/07/20 03:41:00;;;;;;;;;;;;;;;23.09;46.44;98642.97;5074628;28;19911;-46
2023/07/20 03:43:27;;;;;;;;;;;;;;;23.13;46.51;98644.00;5074608;28;20348;-46
2023/07/20 03:45:52;;;;;;;;;;;;;;;23.15;46.29;98641.03;5091498;28;19912;-46
2023/07/20 03:48:19;;;;;;;;;;;;;;;23.24;46.64;98634.00;5091554;28;19912;-46
2023/07/20 03:50:48;;;;;;;;;;;;;;;23.35;46.47;98641.91;5091394;28;19916;-46
2023/07/20 03:53:14;;;;;;;;;;;;;;;23.40;46.34;98641.84;5092620;28;19966;-46
2023/07/20 03:55:41;;;;;;;;;;;;;;;23.38;46.44;98644.00;5091272;28;19912;-46
2023/07/20 03:58:07;;;;;;;;;;;;;;;23.33;46.49;98634.16;5092566;28;19923;-46
2023/07/20 04:00:32;;;;;;;;;;;;;;;23.31;46.42;98639.78;5092566;28;19916;-46
2023/07/20 04:02:58;;;;;;;;;;;;;;;23.33;46.28;98634.94;5091248;28;19923;-45
2023/07/20 04:05:24;;;;;;;;;;;;;;;23.32;46.41;98636.03;5092442;28;19959;-46
2023/07/20 04:07:51;;;;;;;;;;;;;;;23.21;46.52;98641.78;5092412;28;19959;-46
2023/07/20 04:10:16;;;;;;;;;;;;;;;;;;5092382;28;20007;-46
2023/07/20 04:12:41;;;;;;;;;;;;;;;23.14;46.56;98639.47;5092349;28;20011;-46
2023/07/20 04:15:07;;;;;;;;;;;;;;;23.22;46.47;98641.50;5090929;28;19916;-46
2023/07/20 04:17:33;;;;;;;;;;;;;;;23.28;46.51;98645.72;5092652;28;19919;-46
2023/07/20 04:19:58;;;;;;;;;;;;;;;23.41;46.65;98654.16;5090951;28;19961;-46
2023/07/20 04:22:23;;;;;;;;;;;;;;;23.47;46.84;98642.31;5092276;28;20089;-46
2023/07/20 04:24:49;;;;;;;;;;;;;;;23.60;46.79;98640.78;5092239;28;20014;-46
2023/07/20 04:27:14;;;;;;;;;;;;;;;23.72;46.19;98641.19;5092189;28;19912;-45
2023/07/20 04:29:40;;;;;;;;;;;;;;;23.66;46.16;98640.47;5092272;28;19919;-46
2023/07/20 04:32:05;;;;;;;;;;;;;;;23.53;46.13;98649.19;5095340;28;20015;-46
2023/07/20 04:34:31;;;;;;;;;;;;;;;23.40;46.28;98653.38;5095033;28;19952;-46
2023/07/20 04:36:56;;;;;;;;;;;;;;;23.38;46.30;98654.72;5094628;28;19920;-46
2023/07/20 04:39:22;;;;;;;;;;;;;;;23.38;46.60;98652.84;5096404;28;19970;-45
2023/07/20 04:41:47;;;;;;;;;;;;;;;23.69;46.46;98645.25;5096263;28;19912;-45
2023/07/20 04:44:13;;;;;;;;;;;;;;;24.39;44.96;98646.44;5096306;28;19919;-46
2023/07/20 04:46:39;;;;;;;;;;;;;;;25.05;43.61;98644.56;5094834;28;19916;-46
2023/07/20 04:49:05;;;;;;;;;;;;;;;25.63;42.82;98637.00;5096151;28;19934;-46
2023/07/20 04:51:31;;;;;;;;;;;;;;;26.17;41.62;98632.63;5096093;28;20377;-46
2023/07/20 04:53:57;;;;;;;;;;;;;;;26.66;40.59;98622.06;5095998;28;19920;-46
2023/07/20 04:56:25;;;;;;;;;;;;;;;27.02;39.98;98624.59;5094635;28;20499;-46
2023/07/20 04:58:51;;;;;;;;;;;;;;;27.37;39.46;98621.31;5095965;28;19930;-46
2023/07/20 05:01:16;;;;;;;;;;;;;;;27.55;39.68;98628.31;5094574;28;19916;-46
2023/07/20 05:03:41;;;;;;;;;;;;;;;27.72;39.49;98627.53;5094563;28;19912;-46
2023/07/20 05:06:07;;;;;;;;;;;;;;;27.82;39.19;98629.16;5095799;28;19919;-46
2023/07/20 05:08:32;;;;;;;;;;;;;;;27.86;38.75;98630.09;5094494;28;19916;-46
2023/07/20 05:10:59;;;;;;;;;;;;;;;27.94;38.91;98625.84;5094389;28;20293;-46
2023/07/20 05:13:25;;;;;;;;;;;;;;;28.46;38.35;98629.31;5094380;28;19911;-46
2023/07/20 05:15:53;;;;;;;;;;;;;;;29.18;37.15;98635.06;5095560;28;19920;-46
2023/07/20 05:18:20;;;;;;;;;;;;;;;29.77;36.05;98628.06;5094386;28;19912;-46
2023/07/20 05:20:48;;;;;;;;;;;;;;;30.42;35.15;98625.78;5095605;28;19977;-46
2023/07/20 05:23:14;;;;;;;;;;;;;;;30.86;33.79;98626.13;5094160;28;19916;-46
2023/07/20 05:25:39;;;;;;;;;;;;;;;31.01;33.55;98613.88;5095395;28;19912;-46
2023/07/20 05:28:06;;;;;;;;;;;;;;;31.36;32.98;98618.84;5095372;28;19999;-46
2023/07/20 05:30:31;;;;;;;;;;;;;;;31.92;32.38;98619.00;5095368;28;19938;-46
2023/07/20 05:32:57;;;;;;;;;;;;;;;32.58;31.39;98616.97;5094057;28;19912;-46
2023/07/20 05:35:22;;;;;;;;;;;;;;;33.20;30.83;98620.03;5095143;28;19912;-46
2023/07/20 05:37:48;;;;;;;;;;;;;;;33.63;29.95;98610.16;5095036;28;19963;-46
2023/07/20 05:40:14;;;;;;;;;;;;;;;34.16;29.37;98615.94;5095126;28;20411;-46
2023/07/20 05:42:40;;;;;;;;;;;;;;;34.27;29.35;98610.72;5094577;28;19994;-46
2023/07/20 05:45:07;;;;;;;;;;;;;;;34.41;28.62;98608.25;5093726;28;19978;-46
2023/07/20 05:47:32;;;;;;;;;;;;;;;34.71;28.21;98607.63;5076911;28;20378;-46
2023/07/20 05:49:58;;;;;;;;;;;;;;;34.84;27.67;98610.16;5094938;28;20378;-46
2023/07/20 05:52:23;;;;;;;;;;;;;;;35.13;27.33;98614.91;5094912;28;19961;-46
2023/07/20 05:54:48;;;;;;;;;;;;;;;35.32;27.35;98614.06;5093517;28;19912;-46
2023/07/20 05:57:14;;;;;;;;;;;;;;;35.85;26.88;98610.50;5094779;28;20313;-46
2023/07/20 05:59:43;;;;;;;;;;;;;;;36.36;26.17;98617.34;5094811;28;19912;-46
2023/07/20 06:02:09;;;;;;;;;;;;;;;36.56;26.01;98612.47;5094963;28;19912;-46
2023/07/20 06:04:34;;;;;;;;;;;;;;;36.93;24.65;98603.44;5094690;28;20373;-46
2023/07/20 06:07:00;;;;;;;;;;;;;;;37.10;24.94;98607.47;5094883;28;19971;-46
2023/07/20 06:09:27;;;;;;;;;;;;;;;37.44;24.52;98604.59;5094900;28;20194;-46
2023/07/20 06:11:52;;;;;;;;;;;;;;;37.80;23.87;98602.06;5094488;28;19919;-46
2023/07/20 06:14:18;;;;;;;;;;;;;;;37.92;23.46;98596.22;5094483;28;19912;-47
2023/07/20 06:16:43;;;;;;;;;;;;;;;38.11;23.62;98597.88;5094737;28;19916;-46
2023/07/20 06:19:11;;;;;;;;;;;;;;;38.08;23.06;98598.66;5094466;28;20418;-46
2023/07/20 06:21:37;;;;;;;;;;;;;;;38.02;22.56;98591.97;5094478;28;20294;-46
2023/07/20 06:24:02;;;;;;;;;;;;;;;38.05;22.90;98591.97;5094676;28;19919;-46
2023/07/20 06:26:29;;;;;;;;;;;;;;;38.33;22.78;98596.75;5094332;28;19912;-46
2023/07/20 06:28:55;;;;;;;;;;;;;;;38.44;22.69;98596.00;5094194;28;20006;-46
2023/07/20 06:31:21;;;;;;;;;;;;;;;38.82;21.98;98601.91;5092950;28;19961;-46
2023/07/20 06:33:46;;;;;;;;;;;;;;;38.95;22.14;98605.81;5094135;28;20381;-47
2023/07/20 06:36:12;;;;;;;;;;;;;;;39.05;22.24;98602.31;5092746;28;19912;-46
2023/07/20 06:38:38;;;;;;;;;;;;;;;39.24;22.06;98592.09;5093830;28;19926;-46
2023/07/20 06:41:03;;;;;;;;;;;;;;;39.50;21.82;98599.09;5093985;28;19916;-46
2023/07/20 06:43:29;;;;;;;;;;;;;;;39.58;21.62;98586.13;5094023;28;19954;-46
2023/07/20 06:45:54;;;;;;;;;;;;;;;39.67;21.25;98595.53;5093753;28;19916;-46
2023/07/20 06:48:20;;;;;;;;;;;;;;;39.62;21.20;98589.66;5094042;28;19923;-46
2023/07/20 06:50:46;;;;;;;;;;;;;;;39.76;21.13;98584.09;5093810;28;19919;-46
2023/07/20 06:53:11;;;;;;;;;;;;;;;40.10;21.04;98584.34;5091662;28;19912;-47
2023/07/20 06:55:36;;;;;;;;;;;;;;;40.59;20.97;98581.69;5092224;28;19919;-46
2023/07/20 06:58:02;;;;;;;;;;;;;;;41.07;20.54;98589.16;5092356;28;19916;-47
2023/07/20 07:00:28;;;;;;;;;;;;;;;41.40;20.50;98594.34;5093896;28;20328;-47
2023/07/20 07:02:53;;;;;;;;;;;;;;;41.63;20.31;98593.72;5092244;28;19912;-46
2023/07/20 07:05:19;;;;;;;;;;;;;;;41.83;19.46;98591.88;5092245;28;19912;-47
2023/07/20 07:07:44;;;;;;;;;;;;;;;41.69;19.20;98590.06;5093412;28;20410;-47
2023/07/20 07:10:10;;;;;;;;;;;;;;;41.12;19.84;98585.94;5092152;28;19912;-46
2023/07/20 07:12:35;;;;;;;;;;;;;;;41.23;19.83;98585.06;5093419;28;20502;-47
2023/07/20 07:15:02;;;;;;;;;;;;;;;41.45;19.37;98588.38;5091876;28;19912;-47
2023/07/20 07:17:27;;;;;;;;;;;;;;;41.82;18.67;98586.78;5092070;28;20348;-47
2023/07/20 07:19:56;;;;;;;;;;;;;;;41.84;18.60;98579.66;5093275;28;20413;-47
2023/07/20 07:22:21;;;;;;;;;;;;;;;41.66;19.00;98584.63;5093197;28;19912;-46
2023/07/20 07:24:47;;;;;;;;;;;;;;;41.48;18.79;98580.06;5093198;28;19912;-47
2023/07/20 07:27:12;;;;;;;;;;;;;;;41.52;19.01;98580.03;5093324;28;19918;-46
2023/07/20 07:29:38;;;;;;;;;;;;;;;41.60;18.62;98589.03;5091730;28;19916;-47
2023/07/20 07:32:03;;;;;;;;;;;;;;;41.17;18.91;98581.19;5093052;28;19912;-47
2023/07/20 07:34:29;;;;;;;;;;;;;;;40.61;19.05;98579.31;5092934;28;20388;-47
2023/07/20 07:36:54;;;;;;;;;;;;;;;40.09;19.66;98587.50;5092626;28;20305;-47
2023/07/20 07:39:20;;;;;;;;;;;;;;;39.55;20.26;98574.75;5091684;28;19928;-47
2023/07/20 07:41:45;;;;;;;;;;;;;;;39.36;20.98;98580.66;5093099;28;19916;-47
2023/07/20 07:44:11;;;;;;;;;;;;;;;39.21;20.91;98577.19;5091560;28;19912;-47
2023/07/20 07:46:37;;;;;;;;;;;;;;;39.03;21.43;98573.69;5091406;28;19916;-47
2023/07/20 07:49:02;;;;;;;;;;;;;;;38.85;21.58;98576.44;5091384;28;20327;-47
2023/07/20 07:51:28;;;;;;;;;;;;;;;39.03;21.17;98563.50;5091425;28;20393;-47
2023/07/20 07:53:53;;;;;;;;;;;;;;;39.19;20.77;98570.53;5074542;28;20386;-47
2023/07/20 07:56:22;;;;;;;;;;;;;;;39.40;20.81;98564.19;5092588;28;20297;-46
2023/07/20 07:58:48;;;;;;;;;;;;;;;39.58;20.65;98556.69;5092571;28;19912;-47
2023/07/20 08:01:14;;;;;;;;;;;;;;;39.42;20.58;98561.84;5092603;28;20003;-46
2023/07/20 08:03:40;;;;;;;;;;;;;;;39.33;20.88;98560.28;5092626;28;20349;-47
2023/07/20 08:06:05;;;;;;;;;;;;;;;39.84;20.69;98560.88;5092151;28;19912;-47
2023/07/20 08:08:31;;;;;;;;;;;;;;;40.34;20.14;98559.88;5090996;28;19919;-47
2023/07/20 08:10:57;;;;;;;;;;;;;;;40.63;19.96;98554.94;5092559;28;19938;-47
2023/07/20 08:13:23;;;;;;;;;;;;;;;41.19;19.84;98560.31;5092438;28;20349;-47
2023/07/20 08:15:50;;;;;;;;;;;;;;;41.47;19.07;98564.72;5090965;28;19959;-47
2023/07/20 08:18:15;;;;;;;;;;;;;;;41.66;19.06;98554.31;5092303;28;19965;-47
2023/07/20 08:20:43;;;;;;;;;;;;;;;42.29;17.98;98554.59;5092305;28;19912;-47
2023/07/20 08:23:09;;;;;;;;;;;;;;;42.72;17.37;98542.09;5092306;28;19993;-47
2023/07/20 08:25:37;;;;;;;;;;;;;;;42.66;17.05;98538.28;5090985;28;19912;-47
2023/07/20 08:28:02;;;;;;;;;;;;;;;42.92;16.71;98542.16;5092210;28;19916;-47
2023/07/20 08:30:39;;;;;;;;;;;;;;;43.28;16.04;98544.28;5092268;28;19920;-47
2023/07/20 08:33:05;;;;;;;;;;;;;;;43.55;15.87;98541.38;5091028;28;19912;-47
2023/07/20 08:35:30;;;;;;;;;;;;;;;43.77;15.45;98533.44;5092063;28;20450;-47
2023/07/20 08:37:56;;;;;;;;;;;;;;;43.82;15.40;98538.44;5091985;28;20408;-47
2023/07/20 08:40:21;;;;;;;;;;;;;;;44.00;15.31;98531.72;5092130;28;20385;-47
2023/07/20 08:42:47;;;;;;;;;;;;;;;43.93;15.62;98527.16;5092109;28;20002;-47
2023/07/20 08:45:13;;;;;;;;;;;;;;;43.95;15.17;98523.94;5092170;28;19938;-47
2023/07/20 08:47:41;;;;;;;;;;;;;;;43.99;15.10;98519.09;5092005;28;19912;-47
2023/07/20 08:50:07;;;;;;;;;;;;;;;44.11;15.22;98517.66;5090751;28;19920;-47
2023/07/20 08:52:34;;;;;;;;;;;;;;;43.89;15.31;98520.91;5092014;28;19934;-47
2023/07/20 08:55:03;;;;;;;;;;;;;;;44.03;15.10;98512.28;5091863;28;19938;-47
2023/07/20 08:57:28;;;;;;;;;;;;;;;43.86;15.11;98510.72;5092021;28;19912;-47
2023/07/20 08:59:54;;;;;;;;;;;;;;;44.05;15.10;98506.31;5091972;28;19919;-47
2023/07/20 09:02:24;;;;;;;;;;;;;;;44.19;14.97;98508.78;5090662;28;19962;-48
2023/07/20 09:04:49;;;;;;;;;;;;;;;44.15;14.96;98499.78;5091930;28;19912;-47
2023/07/20 09:07:15;;;;;;;;;;;;;;;44.06;14.96;98500.34;5090609;28;19912;-47
2023/07/20 09:09:41;;;;;;;;;;;;;;;44.22;15.04;98496.84;5090949;28;19916;-47
2023/07/20 09:12:13;;;;;;;;;;;;;;;44.42;14.87;98493.19;5090536;28;19965;-47
2023/07/20 09:14:38;;;;;;;;;;;;;;;44.57;14.99;98491.63;5091836;28;19916;-47
2023/07/20 09:17:04;;;;;;;;;;;;;;;44.42;14.69;98496.72;5091747;28;19935;-48
2023/07/20 09:19:29;;;;;;;;;;;;;;;44.44;14.81;98499.84;5094311;28;19965;-47
2023/07/20 09:21:55;;;;;;;;;;;;;;;44.56;14.69;98495.63;5094230;28;19912;-47
2023/07/20 09:24:20;;;;;;;;;;;;;;;44.70;14.52;98482.63;5095537;28;20003;-47
2023/07/20 09:26:48;;;;;;;;;;;;;;;44.63;14.51;98486.34;5094081;28;19916;-47
2023/07/20 09:29:14;;;;;;;;;;;;;;;44.39;14.36;98485.75;5095387;28;20392;-47
2023/07/20 09:31:43;;;;;;;;;;;;;;;44.61;14.27;98480.47;5095313;28;19916;-48
2023/07/20 09:34:08;;;;;;;;;;;;;;;44.91;14.27;98476.50;5095342;28;19952;-48
2023/07/20 09:36:35;;;;;;;;;;;;;;;45.00;14.34;98475.88;5095190;28;19948;-47
2023/07/20 09:39:00;;;;;;;;;;;;;;;45.04;14.00;98482.09;5093708;28;20011;-47
2023/07/20 09:41:26;;;;;;;;;;;;;;;45.08;14.20;98474.47;5094217;28;20035;-48
2023/07/20 09:43:52;;;;;;;;;;;;;;;44.78;14.12;98476.44;5093809;28;19912;-46
2023/07/20 09:46:20;;;;;;;;;;;;;;;44.64;14.55;98474.06;5076866;28;19919;-47
2023/07/20 09:48:53;;;;;;;;;;;;;;;44.48;14.37;98474.88;5095074;28;20351;-48
2023/07/20 09:51:20;;;;;;;;;;;;;;;44.25;14.60;98468.31;5094883;28;19958;-47
2023/07/20 09:53:47;;;;;;;;;;;;;;;44.31;14.32;98459.47;5076978;28;19912;-47
2023/07/20 09:56:13;;;;;;;;;;;;;;;44.36;14.49;98459.72;5093516;28;19923;-47
2023/07/20 09:58:39;;;;;;;;;;;;;;;44.46;14.47;98452.38;5094782;28;19912;-47
2023/07/20 10:01:07;;;;;;;;;;;;;;;44.58;14.41;98451.66;5094783;28;19912;-47
2023/07/20 10:03:35;;;;;;;;;;;;;;;44.31;14.26;98451.94;5094706;28;19951;-47
2023/07/20 10:06:05;;;;;;;;;;;;;;;43.81;14.57;98450.38;5076508;28;19912;-47
2023/07/20 10:08:31;;;;;;;;;;;;;;;43.45;14.79;98446.44;5093398;28;20288;-47
2023/07/20 10:11:00;;;;;;;;;;;;;;;43.93;14.42;98440.63;5093303;28;19916;-47
2023/07/20 10:13:27;;;;;;;;;;;;;;;44.06;14.28;98445.03;5093652;28;19912;-48
2023/07/20 10:15:58;;;;;;;;;;;;;;;44.10;14.24;98442.22;5093204;28;19923;-47
2023/07/20 10:18:35;;;;;;;;;;;;;;;43.51;14.39;98440.38;5094482;28;19919;-47
2023/07/20 10:21:01;;;;;;;;;;;;;;;43.05;14.74;98438.19;5094432;28;20293;-47
2023/07/20 10:23:29;;;;;;;;;;;;;;;43.20;14.71;98435.13;5093172;28;20419;-47
2023/07/20 10:25:55;;;;;;;;;;;;;;;43.15;14.97;98424.59;5094271;28;20056;-47
2023/07/20 10:28:23;;;;;;;;;;;;;;;43.38;15.00;98430.00;5094257;28;19919;-47
2023/07/20 10:30:48;;;;;;;;;;;;;;;43.74;14.60;98426.44;5094162;28;19951;-47
2023/07/20 10:33:14;;;;;;;;;;;;;;;43.76;14.62;98426.03;5093005;28;20024;-47
2023/07/20 10:36:00;;;;;;;;;;;;;;;43.91;14.65;98413.44;5092742;28;19919;-47
2023/07/20 10:38:45;;;;;;;;;;;;;;;44.04;14.26;98419.03;5093463;28;19923;-47
2023/07/20 10:41:21;;;;;;;;;;;;;;;44.02;14.14;98415.91;5086368;28;20412;-47
2023/07/20 10:43:48;;;;;;;;;;;;;;;43.62;14.43;98413.28;5093931;28;19916;-47
2023/07/20 10:46:13;;;;;;;;;;;;;;;43.39;14.46;98420.53;5093891;28;20010;-47
2023/07/20 10:48:57;;;;;;;;;;;;;;;43.23;14.91;98409.41;5093903;28;20335;-47
2023/07/20 10:51:23;;;;;;;;;;;;;;;43.19;14.35;98406.72;5092488;28;19923;-47
2023/07/20 10:53:51;;;;;;;;;;;;;;;43.38;14.91;98404.38;5092473;28;20331;-48
2023/07/20 10:56:20;;;;;;;;;;;;;;;43.40;14.69;98402.72;5093712;28;19920;-47
2023/07/20 10:58:45;;;;;;;;;;;;;;;43.47;14.53;98413.63;5093622;28;19943;-48
2023/07/20 11:01:17;;;;;;;;;;;;;;;43.04;14.78;98409.00;5093697;28;19977;-48
2023/07/20 11:03:44;;;;;;;;;;;;;;;43.15;14.81;98406.03;5093628;28;19938;-47
2023/07/20 11:06:27;;;;;;;;;;;;;;;43.54;15.05;98400.84;5093581;28;19959;-46
2023/07/20 11:09:02;;;;;;;;;;;;;;;43.61;14.51;98395.16;5093591;28;20007;-47
2023/07/20 11:11:29;;;;;;;;;;;;;;;43.26;14.13;98403.81;5093541;28;19911;-47
2023/07/20 11:13:58;;;;;;;;;;;;;;;43.01;14.11;98398.81;5093537;28;20428;-47
2023/07/20 11:16:33;;;;;;;;;;;;;;;42.78;14.67;98398.88;5093277;28;19912;-47
2023/07/20 11:18:59;;;;;;;;;;;;;;;42.60;14.85;98401.97;5075132;28;19973;-48
2023/07/20 11:21:24;;;;;;;;;;;;;;;42.83;14.74;98388.09;5093763;28;19954;-47
2023/07/20 11:23:52;;;;;;;;;;;;;;;42.97;14.34;98391.81;5093211;28;20408;-47
2023/07/20 11:26:19;;;;;;;;;;;;;;;43.08;14.09;98393.16;5093165;28;19981;-48
2023/07/20 11:28:49;;;;;;;;;;;;;;;42.66;14.70;98392.78;5093171;28;19912;-47
2023/07/20 11:31:16;;;;;;;;;;;;;;;42.48;15.03;98384.84;5091816;28;19957;-47
2023/07/20 11:33:42;;;;;;;;;;;;;;;42.52;14.84;98384.78;5093003;28;19922;-48
2023/07/20 11:36:08;;;;;;;;;;;;;;;42.65;14.68;98376.66;5093061;28;19916;-49
2023/07/20 11:38:33;;;;;;;;;;;;;;;42.54;14.63;98376.06;5091424;28;19968;-49
2023/07/20 11:40:59;;;;;;;;;;;;;;;42.25;14.77;98371.84;5091161;28;19911;-49
2023/07/20 11:43:25;;;;;;;;;;;;;;;42.29;14.99;98364.28;5092869;28;20007;-49
2023/07/20 11:45:51;;;;;;;;;;;;;;;41.95;15.05;98358.19;5092805;28;19912;-49
2023/07/20 11:48:17;;;;;;;;;;;;;;;41.72;15.00;98357.75;5093353;28;19965;-49
2023/07/20 11:50:42;;;;;;;;;;;;;;;41.78;14.93;98352.56;5092713;28;19912;-49
2023/07/20 11:53:08;;;;;;;;;;;;;;;41.69;15.48;98355.06;5092743;28;20286;-49
2023/07/20 11:55:34;;;;;;;;;;;;;;;41.95;15.12;98349.91;5092514;28;20024;-49
2023/07/20 11:58:03;;;;;;;;;;;;;;;41.74;15.41;98349.06;5092632;28;19918;-49
2023/07/20 12:00:29;;;;;;;;;;;;;;;41.72;15.38;98352.25;5092645;28;19916;-50
2023/07/20 12:02:54;;;;;;;;;;;;;;;41.76;15.55;98349.44;5092668;28;19912;-49
2023/07/20 12:05:22;;;;;;;;;;;;;;;41.81;15.63;98348.16;5092569;28;20388;-49
2023/07/20 12:07:50;;;;;;;;;;;;;;;41.65;15.60;98344.09;5091244;28;19912;-49
2023/07/20 12:10:15;;;;;;;;;;;;;;;41.79;15.48;98339.53;5092412;28;19916;-49
2023/07/20 12:12:42;;;;;;;;;;;;;;;41.77;15.29;98336.44;5092445;28;20289;-49
2023/07/20 12:15:17;;;;;;;;;;;;;;;41.74;15.48;98337.25;5091005;28;20033;-49
2023/07/20 12:17:46;;;;;;;;;;;;;;;41.62;15.15;98336.66;5091220;28;19938;-49
2023/07/20 12:20:12;;;;;;;;;;;;;;;41.62;15.26;98325.66;5092358;28;19919;-49
2023/07/20 12:22:41;;;;;;;;;;;;;;;41.80;15.57;98319.06;5092315;28;19916;-49
2023/07/20 12:25:08;;;;;;;;;;;;;;;42.05;14.91;98332.44;5092275;28;19927;-49
2023/07/20 12:27:35;;;;;;;;;;;;;;;41.45;15.55;98332.94;5092295;28;19947;-49
2023/07/20 12:30:00;;;;;;;;;;;;;;;40.92;15.68;98329.75;5092547;28;19982;-49
2023/07/20 12:32:26;;;;;;;;;;;;;;;40.59;15.89;98334.09;5092571;28;20393;-49
2023/07/20 12:34:51;;;;;;;;;;;;;;;40.70;15.61;98323.72;5092184;28;19951;-49
2023/07/20 12:37:20;;;;;;;;;;;;;;;40.52;15.70;98326.69;5090702;28;19923;-49
2023/07/20 12:39:47;;;;;;;;;;;;;;;40.50;15.63;98328.28;5090944;28;19934;-49
2023/07/20 12:42:14;;;;;;;;;;;;;;;40.23;15.61;98322.69;5092190;28;19916;-48
2023/07/20 12:44:40;;;;;;;;;;;;;;;40.14;15.90;98315.66;5090829;28;19912;-49